FYWE

Eros Airport

Windhoek, Namibia
METAR FYWE 171700Z 07004KT CAVOK 29/M12 Q1019
Observed Flight Rules
Oct-17 @ 17:00 UTC (an hour ago) Visual Flight Rules
Wind Visibility Clouds
70° at 4 knots 10,000+ meters
  • Clear skies
Temperatures Readings
Current 29°C / 84°F
Dewpoint -12°C / 10°F
Humidity 6%
Altimeter 30.09" Hg
Pressure 1019 hPa
Elevation 1700
METAR FYWE 171700Z 07004KT CAVOK 29/M12 Q1019
Observed Flight Rules
Oct-17 @ 17:00 UTC
(an hour ago)
VFR
Wind Visibility
70° at 4 knots 10,000+ meters
Clouds
  • Clear skies
Temperature Dewpoint
29°C / 84°F -12°C / 10°F
Humidity Altimeter Pressure
6% 30.09" Hg 1019 hPa